createdAt,value
2018-08-28T00:00:28.077Z,3.57
2018-08-28T00:05:31.127Z,4.50
2018-08-28T00:10:34.160Z,4.07
2018-08-28T00:15:37.301Z,4.07
2018-08-28T00:20:40.363Z,3.83
2018-08-28T00:25:43.485Z,5.00
2018-08-28T00:30:46.595Z,4.93
2018-08-28T00:35:49.731Z,4.93
2018-08-28T00:40:52.747Z,5.10
2018-08-28T00:45:55.909Z,5.20
2018-08-28T00:50:59.027Z,4.23
2018-08-28T00:56:02.125Z,4.93
2018-08-28T01:01:05.220Z,5.17
2018-08-28T01:06:08.308Z,4.00
2018-08-28T01:11:11.334Z,4.43
2018-08-28T01:16:14.428Z,5.10
2018-08-28T01:21:17.451Z,6.17
2018-08-28T01:26:20.516Z,5.53
2018-08-28T01:31:23.548Z,4.70
2018-08-28T01:36:26.547Z,4.90
2018-08-28T01:41:29.585Z,6.20
2018-08-28T01:46:32.656Z,4.40
2018-08-28T01:51:35.780Z,5.60
2018-08-28T01:56:38.959Z,5.40
2018-08-28T02:01:42.002Z,5.13
2018-08-28T02:06:45.036Z,5.80
2018-08-28T02:11:48.075Z,4.60
2018-08-28T02:16:51.104Z,5.87
2018-08-28T02:21:54.162Z,5.10
2018-08-28T02:26:57.192Z,4.90
2018-08-28T02:32:00.220Z,4.60
2018-08-28T02:37:03.248Z,5.23
2018-08-28T02:42:06.274Z,4.90
2018-08-28T02:47:09.412Z,5.80
2018-08-28T02:52:12.489Z,5.33
2018-08-28T02:57:15.502Z,5.77
2018-08-28T03:02:18.524Z,5.50
2018-08-28T03:07:21.548Z,4.40
2018-08-28T03:12:24.560Z,5.10
2018-08-28T03:17:27.572Z,5.17
2018-08-28T03:22:30.635Z,4.90
2018-08-28T03:27:33.666Z,5.50
2018-08-28T03:32:36.671Z,6.10
2018-08-28T03:37:39.693Z,5.37
2018-08-28T03:42:42.865Z,4.83
2018-08-28T03:47:45.901Z,5.20
2018-08-28T03:52:49.080Z,4.20
2018-08-28T03:57:52.108Z,6.70
2018-08-28T04:02:55.127Z,5.20
2018-08-28T04:07:58.288Z,4.87
2018-08-28T04:13:01.326Z,4.57
2018-08-28T04:18:04.356Z,4.47
2018-08-28T04:23:07.392Z,4.90
2018-08-28T04:28:10.412Z,4.47
2018-08-28T04:33:13.466Z,4.10
2018-08-28T04:38:16.494Z,4.43
2018-08-28T04:43:19.518Z,3.97
2018-08-28T04:48:22.545Z,4.80
2018-08-28T04:53:25.714Z,3.63
2018-08-28T04:58:28.786Z,4.13
2018-08-28T05:03:31.747Z,4.27
2018-08-28T05:08:34.924Z,3.53
2018-08-28T05:13:38.019Z,4.40
2018-08-28T05:18:41.042Z,4.40
2018-08-28T05:23:44.072Z,4.40
2018-08-28T05:28:47.082Z,4.17
2018-08-28T05:33:50.105Z,4.17
2018-08-28T05:38:53.173Z,4.10
2018-08-28T05:43:56.220Z,4.40
2018-08-28T05:48:59.252Z,4.93
2018-08-28T05:54:02.288Z,4.40
2018-08-28T05:59:05.335Z,4.80
2018-08-28T06:04:08.393Z,3.77
2018-08-28T06:09:11.945Z,4.70
2018-08-28T06:14:14.966Z,3.67
2018-08-28T06:19:18.078Z,3.47
2018-08-28T06:24:21.132Z,3.73
2018-08-28T06:29:24.215Z,3.27
2018-08-28T06:34:27.273Z,2.90
2018-08-28T06:39:30.297Z,3.20
2018-08-28T06:44:33.312Z,3.77
2018-08-28T06:49:36.421Z,3.60
2018-08-28T06:54:39.732Z,3.50
2018-08-28T06:59:42.856Z,3.57
2018-08-28T07:04:45.876Z,3.77
2018-08-28T07:09:48.900Z,3.73
2018-08-28T07:14:51.943Z,3.40
2018-08-28T07:19:55.033Z,3.30
2018-08-28T07:24:58.881Z,3.20
2018-08-28T07:30:01.925Z,2.90
2018-08-28T07:35:05.092Z,3.10
2018-08-28T07:40:08.120Z,2.60
2018-08-28T07:45:11.331Z,2.67
2018-08-28T07:50:14.365Z,3.50
2018-08-28T07:55:17.401Z,2.90
2018-08-28T08:00:20.425Z,3.47
2018-08-28T08:05:23.467Z,2.83
2018-08-28T08:10:26.525Z,3.50
2018-08-28T08:15:29.648Z,4.27
2018-08-28T08:20:32.849Z,2.87
2018-08-28T08:25:35.908Z,3.03
2018-08-28T08:30:38.996Z,2.70
2018-08-28T08:35:42.160Z,3.60
2018-08-28T08:40:46.681Z,3.30
2018-08-28T08:45:50.273Z,2.83
2018-08-28T08:50:53.671Z,2.40
2018-08-28T08:55:56.804Z,2.93
2018-08-28T09:00:59.865Z,3.07
2018-08-28T09:06:03.034Z,2.50
2018-08-28T09:11:06.095Z,3.03
2018-08-28T09:16:09.232Z,2.50
2018-08-28T09:21:12.344Z,2.20
2018-08-28T09:26:16.384Z,2.37
2018-08-28T09:31:19.482Z,2.27
2018-08-28T09:36:22.542Z,2.53
2018-08-28T09:41:25.675Z,2.50
2018-08-28T09:46:28.713Z,3.27
2018-08-28T09:51:31.783Z,3.03
2018-08-28T09:56:34.872Z,3.40
2018-08-28T10:01:42.702Z,3.10
2018-08-28T10:06:45.789Z,3.00
2018-08-28T10:11:48.892Z,2.27
2018-08-28T10:16:51.918Z,2.80
2018-08-28T10:21:54.947Z,2.00
2018-08-28T10:26:57.968Z,3.30
2018-08-28T10:32:00.988Z,3.67
2018-08-28T10:37:04.063Z,2.67
2018-08-28T10:42:07.114Z,3.40
2018-08-28T10:47:10.150Z,3.57
2018-08-28T10:52:13.156Z,3.50
2018-08-28T10:57:16.160Z,3.03
2018-08-28T11:02:19.169Z,3.80
2018-08-28T11:07:22.212Z,3.67
2018-08-28T11:12:25.245Z,2.90
2018-08-28T11:17:28.327Z,3.00
2018-08-28T11:22:31.386Z,4.10
2018-08-28T11:27:34.435Z,3.70
2018-08-28T11:32:37.472Z,2.80
2018-08-28T11:37:40.596Z,3.00
2018-08-28T11:42:43.664Z,3.73
2018-08-28T11:47:46.701Z,3.70
2018-08-28T11:52:49.732Z,2.90
2018-08-28T11:57:52.755Z,3.20
2018-08-28T12:02:55.864Z,3.73
2018-08-28T12:07:58.914Z,3.47
2018-08-28T12:13:01.992Z,3.00
2018-08-28T12:18:05.008Z,3.70
2018-08-28T12:23:08.068Z,2.63
2018-08-28T12:28:11.091Z,3.20
2018-08-28T12:33:14.153Z,2.93
2018-08-28T12:38:17.307Z,2.77
2018-08-28T12:43:20.450Z,3.70
2018-08-28T12:48:23.499Z,3.50
2018-08-28T12:53:26.524Z,3.27
2018-08-28T12:58:29.549Z,2.80
2018-08-28T13:03:32.574Z,3.17
2018-08-28T13:08:35.617Z,2.73
2018-08-28T13:13:38.636Z,3.10
2018-08-28T13:18:41.733Z,2.77
2018-08-28T13:23:44.808Z,2.70
2018-08-28T13:28:47.865Z,3.00
2018-08-28T13:33:50.893Z,4.37
2018-08-28T13:38:53.934Z,4.10
2018-08-28T13:43:57.183Z,2.70
2018-08-28T13:49:00.216Z,4.07
2018-08-28T13:54:03.381Z,3.57
2018-08-28T13:59:06.723Z,3.20
2018-08-28T14:04:09.754Z,3.47
2018-08-28T14:09:12.768Z,3.13
2018-08-28T14:14:15.886Z,3.50
2018-08-28T14:19:18.908Z,3.23
2018-08-28T14:24:22.122Z,4.20
2018-08-28T14:29:25.255Z,3.20
2018-08-28T14:34:28.175Z,3.73
2018-08-28T14:39:31.245Z,3.80
2018-08-28T14:44:34.328Z,3.60
2018-08-28T14:49:37.457Z,3.27
2018-08-28T14:54:40.516Z,3.27
2018-08-28T14:59:43.627Z,2.80
2018-08-28T15:04:46.676Z,3.10
2018-08-28T15:09:49.708Z,3.50
2018-08-28T15:14:52.760Z,3.47
2018-08-28T15:19:55.780Z,3.50
2018-08-28T15:24:58.832Z,3.80
2018-08-28T15:30:01.901Z,3.90
2018-08-28T15:35:04.921Z,4.27
2018-08-28T15:40:07.992Z,3.43
2018-08-28T15:45:11.016Z,4.37
2018-08-28T15:50:14.019Z,3.60
2018-08-28T15:55:17.264Z,3.40
2018-08-28T16:00:20.288Z,3.93
2018-08-28T16:05:23.318Z,3.73
2018-08-28T16:10:26.331Z,4.13
2018-08-28T16:15:29.398Z,3.20
2018-08-28T16:20:32.456Z,3.97
2018-08-28T16:25:35.590Z,3.70
2018-08-28T16:30:38.615Z,4.20
2018-08-28T16:35:41.655Z,6.00
2018-08-28T16:40:44.848Z,3.37
2018-08-28T16:45:47.911Z,5.03
2018-08-28T16:50:50.920Z,5.03
2018-08-28T16:55:54.070Z,3.87
2018-08-28T17:00:57.105Z,4.17
2018-08-28T17:06:00.364Z,4.30
2018-08-28T17:11:03.486Z,4.23
2018-08-28T17:16:06.656Z,5.40
2018-08-28T17:21:09.699Z,4.03
2018-08-28T17:26:13.797Z,4.57
2018-08-28T17:31:16.871Z,4.17
2018-08-28T17:36:20.017Z,3.97
2018-08-28T17:41:23.061Z,4.50
2018-08-28T17:46:26.137Z,5.13
2018-08-28T17:51:29.173Z,4.17
2018-08-28T17:56:32.224Z,5.17
2018-08-28T18:01:35.278Z,4.50
2018-08-28T18:06:38.281Z,4.87
2018-08-28T18:11:41.357Z,4.30
2018-08-28T18:16:44.461Z,4.17
2018-08-28T18:21:48.485Z,3.87
2018-08-28T18:26:51.704Z,3.83
2018-08-28T18:31:54.735Z,4.97
2018-08-28T18:36:57.751Z,4.53
2018-08-28T18:42:00.947Z,5.00
2018-08-28T18:47:03.987Z,4.40
2018-08-28T18:52:07.020Z,4.47
2018-08-28T18:57:10.096Z,5.87
2018-08-28T19:02:13.181Z,5.80
2018-08-28T19:07:16.656Z,4.80
2018-08-28T19:12:19.713Z,5.37
2018-08-28T19:17:22.789Z,4.43
2018-08-28T19:22:25.828Z,4.53
2018-08-28T19:27:28.845Z,5.67
2018-08-28T19:32:31.951Z,4.83
2018-08-28T19:37:35.220Z,5.10
2018-08-28T19:42:38.211Z,5.37
2018-08-28T19:47:41.474Z,5.60
2018-08-28T19:52:44.556Z,4.90
2018-08-28T19:57:47.641Z,5.10
2018-08-28T20:02:51.575Z,5.37
2018-08-28T20:07:55.841Z,4.80
2018-08-28T20:12:58.957Z,5.10
2018-08-28T20:18:02.018Z,5.07
2018-08-28T20:23:05.092Z,5.60
2018-08-28T20:28:08.156Z,5.67
2018-08-28T20:33:11.229Z,4.80
2018-08-28T20:38:14.407Z,5.77
2018-08-28T20:43:17.530Z,5.33
2018-08-28T20:48:20.568Z,6.23
2018-08-28T20:53:23.578Z,5.23
2018-08-28T20:58:26.674Z,5.40
2018-08-28T21:03:29.675Z,5.27
2018-08-28T21:08:32.704Z,5.60
2018-08-28T21:13:35.746Z,5.07
2018-08-28T21:18:39.338Z,6.57
2018-08-28T21:23:42.384Z,8.73
2018-08-28T21:28:45.417Z,8.40
2018-08-28T21:33:48.476Z,9.87
2018-08-28T21:38:51.520Z,7.80
2018-08-28T21:43:54.588Z,7.20
2018-08-28T21:48:57.623Z,8.07
2018-08-28T21:54:00.901Z,7.70
2018-08-28T21:59:03.935Z,7.97
2018-08-28T22:04:07.013Z,7.97
2018-08-28T22:09:10.047Z,8.30
2018-08-28T22:14:13.072Z,7.20
2018-08-28T22:19:16.109Z,6.43
2018-08-28T22:24:19.122Z,6.70
2018-08-28T22:29:22.147Z,6.00
2018-08-28T22:34:25.160Z,6.50
2018-08-28T22:39:28.178Z,6.00
2018-08-28T22:44:31.217Z,5.77
2018-08-28T22:49:34.247Z,6.30
2018-08-28T22:54:37.261Z,5.43
2018-08-28T22:59:40.262Z,6.47
2018-08-28T23:04:43.314Z,6.20
2018-08-28T23:09:46.315Z,5.07
2018-08-28T23:14:49.336Z,5.70
2018-08-28T23:19:52.359Z,5.40
2018-08-28T23:24:55.399Z,4.93
2018-08-28T23:29:58.407Z,5.40
2018-08-28T23:35:01.681Z,5.50
2018-08-28T23:40:04.755Z,5.10
2018-08-28T23:45:07.771Z,4.77
2018-08-28T23:50:10.802Z,5.10
2018-08-28T23:55:13.828Z,4.67
